createdAt,value
2022-07-30T00:01:54.237Z,22.60
2022-07-30T00:04:20.816Z,22.60
2022-07-30T00:06:47.309Z,22.50
2022-07-30T00:09:13.894Z,22.50
2022-07-30T00:11:40.371Z,22.50
2022-07-30T00:14:06.862Z,22.40
2022-07-30T00:16:33.684Z,22.40
2022-07-30T00:19:00.155Z,22.40
2022-07-30T00:21:38.831Z,22.30
2022-07-30T00:24:06.111Z,22.30
2022-07-30T00:26:32.707Z,22.30
2022-07-30T00:28:59.146Z,22.20
2022-07-30T00:31:25.635Z,22.20
2022-07-30T00:33:52.207Z,22.20
2022-07-30T00:36:18.699Z,22.10
2022-07-30T00:38:45.180Z,22.10
2022-07-30T00:41:11.848Z,22.10
2022-07-30T00:43:39.206Z,22.00
2022-07-30T00:46:05.929Z,22.00
2022-07-30T00:48:32.564Z,22.00
2022-07-30T00:50:59.020Z,22.00
2022-07-30T00:53:25.572Z,21.90
2022-07-30T00:55:52.034Z,21.90
2022-07-30T00:58:18.498Z,21.80
2022-07-30T01:00:45.110Z,21.80
2022-07-30T01:03:11.670Z,21.80
2022-07-30T01:05:38.140Z,21.80
2022-07-30T01:08:04.663Z,21.70
2022-07-30T01:10:31.184Z,21.70
2022-07-30T01:12:59.186Z,21.70
2022-07-30T01:15:25.803Z,21.60
2022-07-30T01:17:55.200Z,21.60
2022-07-30T01:20:29.930Z,21.60
2022-07-30T01:22:59.374Z,21.50
2022-07-30T01:25:32.220Z,21.50
2022-07-30T01:28:00.637Z,21.50
2022-07-30T01:30:29.311Z,21.50
2022-07-30T01:32:57.275Z,21.40
2022-07-30T01:35:24.360Z,21.40
2022-07-30T01:37:52.001Z,21.40
2022-07-30T01:40:19.332Z,21.30
2022-07-30T01:42:46.876Z,21.30
2022-07-30T01:45:13.926Z,21.30
2022-07-30T01:47:41.976Z,21.30
2022-07-30T01:50:13.643Z,21.20
2022-07-30T01:52:41.705Z,21.20
2022-07-30T01:55:11.580Z,21.20
2022-07-30T01:57:45.412Z,21.10
2022-07-30T02:00:12.019Z,21.10
2022-07-30T02:02:40.766Z,21.10
2022-07-30T02:05:08.260Z,21.10
2022-07-30T02:07:34.673Z,21.00
2022-07-30T02:10:07.652Z,21.00
2022-07-30T02:12:36.286Z,21.00
2022-07-30T02:15:15.066Z,21.00
2022-07-30T02:18:07.348Z,20.90
2022-07-30T02:20:35.609Z,20.90
2022-07-30T02:23:06.513Z,20.90
2022-07-30T02:25:34.463Z,20.90
2022-07-30T02:28:03.113Z,20.80
2022-07-30T02:30:31.737Z,20.80
2022-07-30T02:33:08.379Z,20.70
2022-07-30T02:35:35.911Z,20.70
2022-07-30T02:38:02.519Z,20.70
2022-07-30T02:40:29.069Z,20.70
2022-07-30T02:42:55.749Z,20.60
2022-07-30T02:45:23.769Z,20.60
2022-07-30T02:48:01.351Z,20.60
2022-07-30T02:50:28.464Z,20.60
2022-07-30T02:52:56.137Z,20.50
2022-07-30T02:55:23.086Z,20.50
2022-07-30T02:57:50.623Z,20.50
2022-07-30T03:00:17.224Z,20.50
2022-07-30T03:02:44.635Z,20.40
2022-07-30T03:05:12.001Z,20.40
2022-07-30T03:07:39.442Z,20.40
2022-07-30T03:10:06.691Z,20.40
2022-07-30T03:12:34.499Z,20.30
2022-07-30T03:15:01.140Z,20.30
2022-07-30T03:17:28.827Z,20.30
2022-07-30T03:19:58.334Z,20.30
2022-07-30T03:22:31.181Z,20.30
2022-07-30T03:24:59.203Z,20.20
2022-07-30T03:27:26.333Z,20.20
2022-07-30T03:29:54.159Z,20.20
2022-07-30T03:32:25.959Z,20.20
2022-07-30T03:34:54.220Z,20.10
2022-07-30T03:37:21.459Z,20.10
2022-07-30T03:39:48.422Z,20.10
2022-07-30T03:42:15.125Z,20.10
2022-07-30T03:44:42.605Z,20.00
2022-07-30T03:47:09.278Z,20.00
2022-07-30T03:49:35.775Z,20.00
2022-07-30T03:52:02.713Z,20.00
2022-07-30T03:54:30.613Z,19.90
2022-07-30T03:56:57.139Z,19.90
2022-07-30T03:59:23.597Z,19.90
2022-07-30T04:01:50.121Z,19.90
2022-07-30T04:04:16.601Z,19.90
2022-07-30T04:06:43.205Z,19.90
2022-07-30T04:09:11.141Z,19.80
2022-07-30T04:11:40.788Z,19.80
2022-07-30T04:14:08.364Z,19.80
2022-07-30T04:16:43.108Z,19.80
2022-07-30T04:19:18.459Z,19.80
2022-07-30T04:21:46.515Z,19.80
2022-07-30T04:24:13.793Z,19.70
2022-07-30T04:26:40.326Z,19.70
2022-07-30T04:29:08.555Z,19.70
2022-07-30T04:31:40.482Z,19.70
2022-07-30T04:34:07.429Z,19.70
2022-07-30T04:36:35.648Z,19.60
2022-07-30T04:39:02.193Z,19.60
2022-07-30T04:41:29.682Z,19.60
2022-07-30T04:44:14.521Z,19.60
2022-07-30T04:46:41.038Z,19.50
2022-07-30T04:49:07.680Z,19.50
2022-07-30T04:51:34.881Z,19.50
2022-07-30T04:54:02.830Z,19.50
2022-07-30T04:56:30.649Z,19.50
2022-07-30T04:58:57.293Z,19.50
2022-07-30T05:01:37.175Z,19.40
2022-07-30T05:04:08.482Z,19.40
2022-07-30T05:06:35.461Z,19.40
2022-07-30T05:09:02.031Z,19.40
2022-07-30T05:11:28.469Z,19.40
2022-07-30T05:13:54.951Z,19.40
2022-07-30T05:16:21.481Z,19.40
2022-07-30T05:18:48.195Z,19.40
2022-07-30T05:21:14.666Z,19.40
2022-07-30T05:23:41.107Z,19.40
2022-07-30T05:26:19.312Z,19.30
2022-07-30T05:28:49.483Z,19.30
2022-07-30T05:31:20.199Z,19.30
2022-07-30T05:33:47.655Z,19.30
2022-07-30T05:36:14.128Z,19.30
2022-07-30T05:38:40.565Z,19.30
2022-07-30T05:41:24.475Z,19.30
2022-07-30T05:43:55.769Z,19.40
2022-07-30T05:46:22.790Z,19.40
2022-07-30T05:48:49.288Z,19.40
2022-07-30T05:51:15.749Z,19.40
2022-07-30T05:53:42.191Z,19.40
2022-07-30T05:56:08.628Z,19.40
2022-07-30T05:58:38.179Z,19.30
2022-07-30T06:01:04.605Z,19.30
2022-07-30T06:03:31.062Z,19.30
2022-07-30T06:05:57.545Z,19.30
2022-07-30T06:08:23.987Z,19.30
2022-07-30T06:10:50.449Z,19.40
2022-07-30T06:13:16.949Z,19.40
2022-07-30T06:15:43.449Z,19.40
2022-07-30T06:18:10.039Z,19.40
2022-07-30T06:20:36.579Z,19.40
2022-07-30T06:23:03.043Z,19.40
2022-07-30T06:25:29.522Z,19.40
2022-07-30T06:27:56.089Z,19.30
2022-07-30T06:30:31.454Z,19.30
2022-07-30T06:32:58.111Z,19.30
2022-07-30T06:35:24.638Z,19.30
2022-07-30T06:37:58.794Z,19.30
2022-07-30T06:40:33.500Z,19.30
2022-07-30T06:43:00.012Z,19.30
2022-07-30T06:45:26.446Z,19.40
2022-07-30T06:47:56.801Z,19.40
2022-07-30T06:50:23.236Z,19.40
2022-07-30T06:52:49.750Z,19.40
2022-07-30T06:55:16.259Z,19.40
2022-07-30T06:57:42.831Z,19.40
2022-07-30T07:00:09.599Z,19.40
2022-07-30T07:02:36.219Z,19.40
2022-07-30T07:05:02.664Z,19.40
2022-07-30T07:07:41.127Z,19.50
2022-07-30T07:10:08.975Z,19.50
2022-07-30T07:12:35.475Z,19.50
2022-07-30T07:15:02.050Z,19.60
2022-07-30T07:17:28.933Z,19.60
2022-07-30T07:20:00.960Z,19.60
2022-07-30T07:22:28.480Z,19.60
2022-07-30T07:24:54.980Z,19.60
2022-07-30T07:27:21.518Z,19.70
2022-07-30T07:30:01.826Z,19.70
2022-07-30T07:32:32.014Z,19.70
2022-07-30T07:34:58.486Z,19.80
2022-07-30T07:37:24.979Z,19.80
2022-07-30T07:39:51.427Z,19.90
2022-07-30T07:42:17.888Z,19.90
2022-07-30T07:44:44.356Z,19.90
2022-07-30T07:47:10.829Z,20.00
2022-07-30T07:49:37.281Z,20.00
2022-07-30T07:52:03.795Z,20.10
2022-07-30T07:54:30.317Z,20.10
2022-07-30T07:56:56.975Z,20.10
2022-07-30T07:59:23.646Z,20.20
2022-07-30T08:01:57.534Z,20.30
2022-07-30T08:04:24.058Z,20.30
2022-07-30T08:06:50.609Z,20.30
2022-07-30T08:09:17.196Z,20.40
2022-07-30T08:11:43.651Z,20.40
2022-07-30T08:14:10.148Z,20.50
2022-07-30T08:16:36.770Z,20.50
2022-07-30T08:19:03.324Z,20.60
2022-07-30T08:21:29.783Z,20.50
2022-07-30T08:23:56.312Z,20.50
2022-07-30T08:26:22.810Z,20.60
2022-07-30T08:28:49.397Z,20.60
2022-07-30T08:31:15.926Z,20.70
2022-07-30T08:33:42.406Z,20.70
2022-07-30T08:36:09.433Z,20.80
2022-07-30T08:38:36.724Z,20.90
2022-07-30T08:41:03.218Z,20.90
2022-07-30T08:43:32.976Z,20.90
2022-07-30T08:46:00.513Z,20.90
2022-07-30T08:48:27.009Z,20.90
2022-07-30T08:50:53.660Z,21.00
2022-07-30T08:53:20.303Z,21.00
2022-07-30T08:55:46.863Z,21.00
2022-07-30T08:58:30.301Z,21.10
2022-07-30T09:00:57.110Z,21.20
2022-07-30T09:03:23.673Z,21.30
2022-07-30T09:05:50.171Z,21.30
2022-07-30T09:08:17.770Z,21.50
2022-07-30T09:10:52.973Z,21.50
2022-07-30T09:13:46.311Z,21.60
2022-07-30T09:16:23.055Z,21.70
2022-07-30T09:18:50.326Z,21.80
2022-07-30T09:21:23.300Z,21.90
2022-07-30T09:24:04.721Z,22.00
2022-07-30T09:26:32.975Z,22.00
2022-07-30T09:29:16.218Z,22.00
2022-07-30T09:31:55.292Z,22.10
2022-07-30T09:34:32.170Z,22.10
2022-07-30T09:36:59.829Z,22.30
2022-07-30T09:39:30.450Z,22.30
2022-07-30T09:41:56.959Z,22.40
2022-07-30T09:44:27.303Z,22.60
2022-07-30T09:46:53.954Z,22.60
2022-07-30T09:49:21.749Z,22.70
2022-07-30T09:52:06.656Z,22.80
2022-07-30T09:54:51.053Z,22.90
2022-07-30T09:57:26.688Z,22.90
2022-07-30T09:59:57.707Z,23.00
2022-07-30T10:02:33.189Z,23.00
2022-07-30T10:05:10.350Z,23.10
2022-07-30T10:07:47.701Z,23.40
2022-07-30T10:10:15.225Z,23.40
2022-07-30T10:12:45.598Z,23.40
2022-07-30T10:15:13.779Z,23.60
2022-07-30T10:17:41.743Z,23.50
2022-07-30T10:20:09.142Z,23.50
2022-07-30T10:22:36.192Z,23.50
2022-07-30T10:25:03.374Z,23.60
2022-07-30T10:27:32.241Z,23.70
2022-07-30T10:29:59.556Z,23.60
2022-07-30T10:32:31.299Z,23.70
2022-07-30T10:34:58.287Z,23.80
2022-07-30T10:37:26.524Z,23.90
2022-07-30T10:40:11.870Z,23.90
2022-07-30T10:42:38.383Z,24.00
2022-07-30T10:45:09.169Z,24.00
2022-07-30T10:47:48.917Z,24.10
2022-07-30T10:50:22.302Z,24.10
2022-07-30T10:52:53.277Z,24.10
2022-07-30T10:55:37.332Z,24.10
2022-07-30T10:58:09.671Z,24.10
2022-07-30T11:00:56.845Z,24.10
2022-07-30T11:03:41.720Z,24.20
2022-07-30T11:06:16.971Z,24.20
2022-07-30T11:08:51.129Z,24.30
2022-07-30T11:11:20.641Z,24.30
2022-07-30T11:14:07.114Z,24.40
2022-07-30T11:16:33.549Z,24.40
2022-07-30T11:22:13.139Z,24.40
2022-07-30T11:24:42.440Z,24.40
2022-07-30T11:27:30.450Z,24.50
2022-07-30T11:30:04.400Z,24.50
2022-07-30T11:32:32.111Z,24.50
2022-07-30T11:35:12.039Z,24.70
2022-07-30T11:37:58.226Z,24.70
2022-07-30T11:40:30.249Z,24.70
2022-07-30T11:43:15.268Z,24.70
2022-07-30T11:45:41.902Z,24.80
2022-07-30T11:48:12.424Z,24.80
2022-07-30T11:50:39.040Z,24.80
2022-07-30T11:53:06.819Z,24.70
2022-07-30T11:55:38.845Z,24.80
2022-07-30T11:58:06.780Z,24.90
2022-07-30T12:00:34.459Z,24.90
2022-07-30T12:03:03.910Z,24.90
2022-07-30T12:05:30.842Z,25.00
2022-07-30T12:07:58.450Z,25.00
2022-07-30T12:10:25.689Z,25.10
2022-07-30T12:13:06.065Z,25.10
2022-07-30T12:15:35.537Z,25.10
2022-07-30T12:20:53.776Z,25.20
2022-07-30T12:23:21.952Z,25.20
2022-07-30T12:25:51.727Z,25.30
2022-07-30T12:28:22.820Z,25.30
2022-07-30T12:30:49.597Z,25.30
2022-07-30T12:33:16.151Z,25.30
2022-07-30T12:35:48.799Z,25.30
2022-07-30T12:38:16.432Z,25.30
2022-07-30T12:40:57.910Z,25.30
2022-07-30T12:43:43.372Z,25.40
2022-07-30T12:46:14.606Z,25.50
2022-07-30T12:48:51.943Z,25.60
2022-07-30T12:51:18.502Z,25.50
2022-07-30T12:53:45.937Z,25.50
2022-07-30T12:56:13.609Z,25.60
2022-07-30T12:58:40.780Z,25.60
2022-07-30T13:01:08.054Z,25.70
2022-07-30T13:03:40.842Z,25.70
2022-07-30T13:06:14.824Z,25.80
2022-07-30T13:08:52.010Z,25.80
2022-07-30T13:11:19.841Z,25.80
2022-07-30T13:13:46.777Z,25.80
2022-07-30T13:16:13.455Z,25.90
2022-07-30T13:18:40.642Z,25.80
2022-07-30T13:21:11.343Z,25.90
2022-07-30T13:23:38.891Z,25.80
2022-07-30T13:26:06.523Z,25.90
2022-07-30T13:28:34.712Z,25.90
2022-07-30T13:31:01.755Z,26.00
2022-07-30T13:33:28.334Z,26.10
2022-07-30T13:35:54.934Z,26.20
2022-07-30T13:38:21.379Z,26.20
2022-07-30T13:40:48.398Z,26.20
2022-07-30T13:43:15.129Z,26.30
2022-07-30T13:45:41.598Z,26.30
2022-07-30T13:48:08.159Z,26.10
2022-07-30T13:50:34.629Z,26.30
2022-07-30T13:53:02.595Z,26.40
2022-07-30T13:55:29.411Z,26.40
2022-07-30T13:57:56.079Z,26.40
2022-07-30T14:00:23.143Z,26.40
2022-07-30T14:02:49.726Z,26.50
2022-07-30T14:05:16.237Z,26.50
2022-07-30T14:07:42.711Z,26.50
2022-07-30T14:10:09.569Z,26.50
2022-07-30T14:12:37.510Z,26.60
2022-07-30T14:15:04.352Z,26.60
2022-07-30T14:17:30.803Z,26.60
2022-07-30T14:19:57.312Z,26.60
2022-07-30T14:22:23.761Z,26.60
2022-07-30T14:24:50.215Z,26.70
2022-07-30T14:27:19.782Z,26.70
2022-07-30T14:29:46.574Z,26.70
2022-07-30T14:32:13.205Z,26.70
2022-07-30T14:34:39.678Z,26.80
2022-07-30T14:37:06.215Z,26.80
2022-07-30T14:39:36.233Z,26.80
2022-07-30T14:42:02.780Z,26.80
2022-07-30T14:44:29.304Z,26.80
2022-07-30T14:46:55.834Z,26.80
2022-07-30T14:49:22.682Z,26.90
2022-07-30T14:51:49.490Z,26.90
2022-07-30T14:54:15.953Z,26.90
2022-07-30T14:56:42.670Z,26.80
2022-07-30T14:59:09.242Z,26.90
2022-07-30T15:01:35.804Z,26.90
2022-07-30T15:04:02.398Z,26.90
2022-07-30T15:06:29.061Z,26.90
2022-07-30T15:08:55.549Z,26.90
2022-07-30T15:11:22.104Z,26.80
2022-07-30T15:13:49.714Z,26.80
2022-07-30T15:16:17.513Z,26.90
2022-07-30T15:18:43.991Z,26.90
2022-07-30T15:21:10.905Z,26.90
2022-07-30T15:23:37.339Z,26.70
2022-07-30T15:26:03.975Z,26.60
2022-07-30T15:28:30.559Z,26.50
2022-07-30T15:30:58.134Z,26.70
2022-07-30T15:33:24.879Z,26.70
2022-07-30T15:35:51.410Z,26.80
2022-07-30T15:38:17.847Z,26.80
2022-07-30T15:40:44.335Z,26.90
2022-07-30T15:43:10.860Z,26.80
2022-07-30T15:45:52.322Z,26.70
2022-07-30T15:48:26.851Z,26.60
2022-07-30T15:50:54.162Z,26.70
2022-07-30T15:53:20.587Z,26.80
2022-07-30T15:55:47.712Z,26.90
2022-07-30T15:58:14.203Z,26.90
2022-07-30T16:00:40.739Z,26.90
2022-07-30T16:03:07.774Z,26.90
2022-07-30T16:05:52.047Z,26.80
2022-07-30T16:08:19.672Z,26.80
2022-07-30T16:10:46.158Z,26.80
2022-07-30T16:13:12.635Z,26.90
2022-07-30T16:15:39.229Z,26.90
2022-07-30T16:18:06.354Z,26.90
2022-07-30T16:20:32.817Z,26.90
2022-07-30T16:22:59.291Z,27.00
2022-07-30T16:25:25.941Z,26.90
2022-07-30T16:27:52.484Z,27.00
2022-07-30T16:30:19.013Z,26.90
2022-07-30T16:32:45.590Z,26.90
2022-07-30T16:35:13.487Z,26.90
2022-07-30T16:37:40.180Z,26.90
2022-07-30T16:40:06.867Z,26.80
2022-07-30T16:42:33.300Z,26.90
2022-07-30T16:44:59.840Z,26.90
2022-07-30T16:47:26.424Z,26.90
2022-07-30T16:49:52.963Z,26.90
2022-07-30T16:52:19.775Z,27.00
2022-07-30T16:54:46.306Z,27.00
2022-07-30T16:57:12.869Z,27.00
2022-07-30T16:59:43.649Z,27.00
2022-07-30T17:02:10.490Z,26.90
2022-07-30T17:04:37.030Z,26.90
2022-07-30T17:07:03.538Z,26.80
2022-07-30T17:09:36.428Z,26.90
2022-07-30T17:12:05.353Z,26.90
2022-07-30T17:14:34.397Z,26.90
2022-07-30T17:17:00.951Z,26.90
2022-07-30T17:19:27.528Z,26.90
2022-07-30T17:21:54.032Z,26.90
2022-07-30T17:24:20.940Z,26.90
2022-07-30T17:26:47.423Z,26.80
2022-07-30T17:29:15.207Z,26.80
2022-07-30T17:31:44.128Z,26.80
2022-07-30T17:34:11.419Z,26.80
2022-07-30T17:36:38.582Z,26.80
2022-07-30T17:39:05.382Z,26.80
2022-07-30T17:41:31.962Z,26.70
2022-07-30T17:43:58.693Z,26.70
2022-07-30T17:46:25.337Z,26.70
2022-07-30T17:48:51.783Z,26.70
2022-07-30T17:51:18.429Z,26.60
2022-07-30T17:53:44.963Z,26.60
2022-07-30T17:56:26.853Z,26.60
2022-07-30T17:58:54.023Z,26.60
2022-07-30T18:01:20.632Z,26.50
2022-07-30T18:03:47.124Z,26.50
2022-07-30T18:06:13.647Z,26.50
2022-07-30T18:08:40.148Z,26.50
2022-07-30T18:11:09.546Z,26.40
2022-07-30T18:13:38.431Z,26.40
2022-07-30T18:16:05.167Z,26.40
2022-07-30T18:18:31.607Z,26.30
2022-07-30T18:20:58.169Z,26.30
2022-07-30T18:23:24.664Z,26.30
2022-07-30T18:26:01.146Z,26.20
2022-07-30T18:28:28.985Z,26.20
2022-07-30T18:30:55.452Z,26.20
2022-07-30T18:33:22.041Z,26.10
2022-07-30T18:35:48.650Z,26.10
2022-07-30T18:38:15.184Z,26.10
2022-07-30T18:40:41.713Z,26.00
2022-07-30T18:43:08.141Z,26.00
2022-07-30T18:45:37.067Z,26.00
2022-07-30T18:48:03.905Z,26.00
2022-07-30T18:50:30.675Z,25.90
2022-07-30T18:52:57.253Z,25.90
2022-07-30T18:55:23.768Z,25.80
2022-07-30T18:57:52.365Z,25.60
2022-07-30T19:00:34.850Z,25.50
2022-07-30T19:03:02.233Z,25.40
2022-07-30T19:05:28.740Z,25.30
2022-07-30T19:07:58.317Z,25.20
2022-07-30T19:10:26.406Z,25.10
2022-07-30T19:12:53.426Z,25.10
2022-07-30T19:15:19.951Z,25.00
2022-07-30T19:17:47.037Z,25.00
2022-07-30T19:20:13.621Z,24.90
2022-07-30T19:22:41.524Z,24.80
2022-07-30T19:25:08.414Z,24.90
2022-07-30T19:27:34.952Z,24.80
2022-07-30T19:30:01.517Z,24.80
2022-07-30T19:32:30.212Z,24.80
2022-07-30T19:34:56.677Z,24.80
2022-07-30T19:37:24.040Z,24.90
2022-07-30T19:40:05.533Z,24.90
2022-07-30T19:42:33.802Z,24.90
2022-07-30T19:45:01.331Z,24.90
2022-07-30T19:47:35.306Z,24.90
2022-07-30T19:50:07.209Z,24.90
2022-07-30T19:52:34.810Z,24.80
2022-07-30T19:55:01.374Z,24.80
2022-07-30T19:57:45.676Z,24.80
2022-07-30T20:00:24.608Z,24.80
2022-07-30T20:02:51.741Z,24.70
2022-07-30T20:05:18.353Z,24.70
2022-07-30T20:07:45.608Z,24.70
2022-07-30T20:10:12.836Z,24.70
2022-07-30T20:12:49.356Z,24.60
2022-07-30T20:15:16.725Z,24.60
2022-07-30T20:17:43.190Z,24.60
2022-07-30T20:20:10.010Z,24.60
2022-07-30T20:22:36.467Z,24.50
2022-07-30T20:25:05.200Z,24.50
2022-07-30T20:27:36.467Z,24.50
2022-07-30T20:30:05.745Z,24.50
2022-07-30T20:32:32.324Z,24.40
2022-07-30T20:34:58.853Z,24.40
2022-07-30T20:37:27.438Z,24.30
2022-07-30T20:39:54.983Z,24.30
2022-07-30T20:42:23.605Z,24.30
2022-07-30T20:44:51.340Z,24.30
2022-07-30T20:47:34.356Z,24.30
2022-07-30T20:50:05.301Z,24.20
2022-07-30T20:52:36.343Z,24.20
2022-07-30T20:55:03.138Z,24.20
2022-07-30T20:57:57.141Z,24.20
2022-07-30T21:00:18.720Z,24.10
2022-07-30T21:02:46.914Z,24.10
2022-07-30T21:05:17.940Z,24.10
2022-07-30T21:07:46.637Z,24.00
2022-07-30T21:10:13.485Z,24.00
2022-07-30T21:12:41.224Z,24.00
2022-07-30T21:15:24.123Z,23.90
2022-07-30T21:17:51.072Z,23.90
2022-07-30T21:20:27.535Z,23.90
2022-07-30T21:22:54.833Z,23.90
2022-07-30T21:25:21.455Z,23.80
2022-07-30T21:27:50.350Z,23.80
2022-07-30T21:30:16.846Z,23.80
2022-07-30T21:32:43.522Z,23.70
2022-07-30T21:35:11.705Z,23.70
2022-07-30T21:37:38.388Z,23.70
2022-07-30T21:40:09.773Z,23.70
2022-07-30T21:42:36.284Z,23.60
2022-07-30T21:45:15.474Z,23.60
2022-07-30T21:47:47.761Z,23.60
2022-07-30T21:50:16.056Z,23.60
2022-07-30T21:52:43.143Z,23.60
2022-07-30T21:55:13.193Z,23.50
2022-07-30T21:57:40.516Z,23.50
2022-07-30T22:00:10.707Z,23.50
2022-07-30T22:02:37.229Z,23.50
2022-07-30T22:05:03.719Z,23.40
2022-07-30T22:07:30.699Z,23.40
2022-07-30T22:09:58.390Z,23.40
2022-07-30T22:12:28.876Z,23.40
2022-07-30T22:14:55.582Z,23.30
2022-07-30T22:17:23.670Z,23.30
2022-07-30T22:20:03.941Z,23.30
2022-07-30T22:22:36.287Z,23.30
2022-07-30T22:25:22.453Z,23.30
2022-07-30T22:27:56.350Z,23.20
2022-07-30T22:30:24.404Z,23.20
2022-07-30T22:32:54.351Z,23.20
2022-07-30T22:35:32.239Z,23.20
2022-07-30T22:38:00.899Z,23.10
2022-07-30T22:40:27.359Z,23.10
2022-07-30T22:42:53.833Z,23.10
2022-07-30T22:45:46.887Z,23.10
2022-07-30T22:48:10.030Z,23.00
2022-07-30T22:50:39.890Z,23.00
2022-07-30T22:53:09.762Z,23.00
2022-07-30T22:55:46.262Z,23.00
2022-07-30T22:58:12.754Z,23.00
2022-07-30T23:00:39.223Z,22.90
2022-07-30T23:03:05.766Z,22.90
2022-07-30T23:05:35.264Z,22.90
2022-07-30T23:08:02.151Z,22.90
2022-07-30T23:10:28.683Z,22.90
2022-07-30T23:12:55.859Z,22.80
2022-07-30T23:15:22.552Z,22.80
2022-07-30T23:17:49.013Z,22.80
2022-07-30T23:20:16.604Z,22.80
2022-07-30T23:22:43.427Z,22.70
2022-07-30T23:25:10.887Z,22.70
2022-07-30T23:27:37.593Z,22.70
2022-07-30T23:30:04.327Z,22.70
2022-07-30T23:32:30.807Z,22.70
2022-07-30T23:34:57.520Z,22.70
2022-07-30T23:37:23.952Z,22.60
2022-07-30T23:39:50.495Z,22.60
2022-07-30T23:42:17.258Z,22.60
2022-07-30T23:44:43.811Z,22.60
2022-07-30T23:47:10.303Z,22.60
2022-07-30T23:49:37.277Z,22.50
2022-07-30T23:52:04.347Z,22.50
2022-07-30T23:54:31.740Z,22.50
2022-07-30T23:56:58.229Z,22.50
2022-07-30T23:59:40.812Z,22.50
